sensor_id;sensor_type;location;lat;lon;timestamp;pressure;altitude;pressure_sealevel;temperature;humidity
34065;BME280;20339;49.754;20.158;2024-01-16T00:00:52;94865.61;;;-2.42;87.52
34065;BME280;20339;49.754;20.158;2024-01-16T00:03:43;94872.94;;;-2.43;87.57
34065;BME280;20339;49.754;20.158;2024-01-16T00:06:14;94870.45;;;-2.39;87.43
34065;BME280;20339;49.754;20.158;2024-01-16T00:08:48;94874.63;;;-2.37;87.18
34065;BME280;20339;49.754;20.158;2024-01-16T00:11:19;94879.52;;;-2.36;87.12
34065;BME280;20339;49.754;20.158;2024-01-16T00:13:50;94877.88;;;-2.34;87.25
34065;BME280;20339;49.754;20.158;2024-01-16T00:16:26;94888.98;;;-2.30;87.01
34065;BME280;20339;49.754;20.158;2024-01-16T00:18:57;94894.88;;;-2.27;87.24
34065;BME280;20339;49.754;20.158;2024-01-16T00:21:28;94899.45;;;-2.26;86.94
34065;BME280;20339;49.754;20.158;2024-01-16T00:24:01;94907.50;;;-2.27;87.09
34065;BME280;20339;49.754;20.158;2024-01-16T00:26:32;94911.16;;;-2.29;87.26
34065;BME280;20339;49.754;20.158;2024-01-16T00:29:03;94911.59;;;-2.40;87.87
34065;BME280;20339;49.754;20.158;2024-01-16T00:31:35;94920.66;;;-2.48;88.58
34065;BME280;20339;49.754;20.158;2024-01-16T00:34:08;94915.34;;;-2.50;89.34
34065;BME280;20339;49.754;20.158;2024-01-16T00:36:39;94925.80;;;-2.52;89.27
34065;BME280;20339;49.754;20.158;2024-01-16T00:39:10;94925.92;;;-2.51;89.66
34065;BME280;20339;49.754;20.158;2024-01-16T00:41:41;94922.11;;;-2.48;89.71
34065;BME280;20339;49.754;20.158;2024-01-16T00:44:12;94927.51;;;-2.48;89.64
34065;BME280;20339;49.754;20.158;2024-01-16T00:46:49;94937.04;;;-2.50;89.50
34065;BME280;20339;49.754;20.158;2024-01-16T00:49:22;94947.09;;;-2.51;89.51
34065;BME280;20339;49.754;20.158;2024-01-16T00:51:53;94950.65;;;-2.52;89.30
34065;BME280;20339;49.754;20.158;2024-01-16T00:54:26;94954.69;;;-2.53;89.27
34065;BME280;20339;49.754;20.158;2024-01-16T00:57:00;94952.02;;;-2.53;89.38
34065;BME280;20339;49.754;20.158;2024-01-16T00:59:31;94955.61;;;-2.56;89.45
34065;BME280;20339;49.754;20.158;2024-01-16T01:02:04;94959.48;;;-2.57;89.57
34065;BME280;20339;49.754;20.158;2024-01-16T01:04:38;94960.83;;;-2.57;89.48
34065;BME280;20339;49.754;20.158;2024-01-16T01:07:14;94961.50;;;-2.58;89.57
34065;BME280;20339;49.754;20.158;2024-01-16T01:09:47;94964.15;;;-2.57;89.86
34065;BME280;20339;49.754;20.158;2024-01-16T01:12:20;94979.40;;;-2.57;89.93
34065;BME280;20339;49.754;20.158;2024-01-16T01:15:09;94980.52;;;-2.55;90.28
34065;BME280;20339;49.754;20.158;2024-01-16T01:17:41;94986.00;;;-2.56;90.02
34065;BME280;20339;49.754;20.158;2024-01-16T01:20:13;94990.98;;;-2.56;90.06
34065;BME280;20339;49.754;20.158;2024-01-16T01:22:46;94997.73;;;-2.54;90.00
34065;BME280;20339;49.754;20.158;2024-01-16T01:25:22;94996.19;;;-2.53;89.95
34065;BME280;20339;49.754;20.158;2024-01-16T01:27:55;94994.20;;;-2.54;90.34
34065;BME280;20339;49.754;20.158;2024-01-16T01:30:26;95002.59;;;-2.54;90.74
34065;BME280;20339;49.754;20.158;2024-01-16T01:32:57;95009.27;;;-2.57;90.63
34065;BME280;20339;49.754;20.158;2024-01-16T01:35:31;95019.73;;;-2.59;90.74
34065;BME280;20339;49.754;20.158;2024-01-16T01:38:01;95018.18;;;-2.59;90.91
34065;BME280;20339;49.754;20.158;2024-01-16T01:43:41;95022.37;;;-2.60;90.75
34065;BME280;20339;49.754;20.158;2024-01-16T01:46:15;95016.66;;;-2.60;91.14
34065;BME280;20339;49.754;20.158;2024-01-16T01:48:49;95014.19;;;-2.59;91.26
34065;BME280;20339;49.754;20.158;2024-01-16T01:51:22;95015.71;;;-2.57;91.27
34065;BME280;20339;49.754;20.158;2024-01-16T01:53:55;95019.62;;;-2.57;91.48
34065;BME280;20339;49.754;20.158;2024-01-16T01:56:31;95014.73;;;-2.58;91.28
34065;BME280;20339;49.754;20.158;2024-01-16T01:59:03;95019.90;;;-2.59;91.40
34065;BME280;20339;49.754;20.158;2024-01-16T02:01:36;95018.08;;;-2.59;91.52
34065;BME280;20339;49.754;20.158;2024-01-16T02:04:10;95020.85;;;-2.61;91.91
34065;BME280;20339;49.754;20.158;2024-01-16T02:06:45;95024.51;;;-2.63;91.82
34065;BME280;20339;49.754;20.158;2024-01-16T02:09:16;95023.37;;;-2.62;91.79
34065;BME280;20339;49.754;20.158;2024-01-16T02:11:47;95024.52;;;-2.63;91.72
34065;BME280;20339;49.754;20.158;2024-01-16T02:14:18;95028.77;;;-2.62;91.83
34065;BME280;20339;49.754;20.158;2024-01-16T02:16:51;95027.35;;;-2.60;91.81
34065;BME280;20339;49.754;20.158;2024-01-16T02:19:24;95027.17;;;-2.58;92.25
34065;BME280;20339;49.754;20.158;2024-01-16T02:21:59;95035.81;;;-2.56;91.90
34065;BME280;20339;49.754;20.158;2024-01-16T02:24:34;95034.27;;;-2.59;92.02
34065;BME280;20339;49.754;20.158;2024-01-16T02:27:12;95039.33;;;-2.60;92.06
34065;BME280;20339;49.754;20.158;2024-01-16T02:29:46;95049.55;;;-2.60;92.23
34065;BME280;20339;49.754;20.158;2024-01-16T02:32:19;95051.03;;;-2.59;92.20
34065;BME280;20339;49.754;20.158;2024-01-16T02:34:55;95040.52;;;-2.58;92.26
34065;BME280;20339;49.754;20.158;2024-01-16T02:37:26;95044.04;;;-2.58;92.05
34065;BME280;20339;49.754;20.158;2024-01-16T02:39:57;95045.77;;;-2.60;91.98
34065;BME280;20339;49.754;20.158;2024-01-16T02:42:28;95046.30;;;-2.63;92.09
34065;BME280;20339;49.754;20.158;2024-01-16T02:45:00;95050.69;;;-2.64;91.78
34065;BME280;20339;49.754;20.158;2024-01-16T02:47:33;95055.80;;;-2.59;92.03
34065;BME280;20339;49.754;20.158;2024-01-16T02:50:12;95054.01;;;-2.52;91.85
34065;BME280;20339;49.754;20.158;2024-01-16T02:52:43;95056.54;;;-2.49;91.90
34065;BME280;20339;49.754;20.158;2024-01-16T02:55:14;95061.98;;;-2.49;91.92
34065;BME280;20339;49.754;20.158;2024-01-16T02:57:47;95058.67;;;-2.46;91.75
34065;BME280;20339;49.754;20.158;2024-01-16T03:00:21;95061.14;;;-2.44;91.57
34065;BME280;20339;49.754;20.158;2024-01-16T03:02:55;95067.35;;;-2.45;91.29
34065;BME280;20339;49.754;20.158;2024-01-16T03:05:26;95061.34;;;-2.44;91.25
34065;BME280;20339;49.754;20.158;2024-01-16T03:07:59;95060.34;;;-2.42;91.03
34065;BME280;20339;49.754;20.158;2024-01-16T03:10:31;95063.67;;;-2.38;91.05
34065;BME280;20339;49.754;20.158;2024-01-16T03:13:05;95069.21;;;-2.36;90.79
34065;BME280;20339;49.754;20.158;2024-01-16T03:15:36;95069.48;;;-2.35;90.55
34065;BME280;20339;49.754;20.158;2024-01-16T03:18:10;95073.73;;;-2.36;90.28
34065;BME280;20339;49.754;20.158;2024-01-16T03:20:41;95075.57;;;-2.38;90.18
34065;BME280;20339;49.754;20.158;2024-01-16T03:23:14;95079.09;;;-2.38;90.03
34065;BME280;20339;49.754;20.158;2024-01-16T03:25:50;95073.37;;;-2.36;89.82
34065;BME280;20339;49.754;20.158;2024-01-16T03:28:25;95074.73;;;-2.35;89.60
34065;BME280;20339;49.754;20.158;2024-01-16T03:30:58;95075.52;;;-2.34;89.44
34065;BME280;20339;49.754;20.158;2024-01-16T03:33:34;95072.08;;;-2.35;89.31
34065;BME280;20339;49.754;20.158;2024-01-16T03:36:10;95076.84;;;-2.37;89.07
34065;BME280;20339;49.754;20.158;2024-01-16T03:38:43;95079.70;;;-2.36;89.05
34065;BME280;20339;49.754;20.158;2024-01-16T03:41:21;95078.02;;;-2.37;88.88
34065;BME280;20339;49.754;20.158;2024-01-16T03:43:53;95085.60;;;-2.37;88.94
34065;BME280;20339;49.754;20.158;2024-01-16T03:46:28;95085.14;;;-2.34;88.97
34065;BME280;20339;49.754;20.158;2024-01-16T03:48:59;95093.95;;;-2.34;88.88
34065;BME280;20339;49.754;20.158;2024-01-16T03:51:30;95092.27;;;-2.32;88.76
34065;BME280;20339;49.754;20.158;2024-01-16T03:54:01;95092.91;;;-2.30;88.71
34065;BME280;20339;49.754;20.158;2024-01-16T03:56:36;95093.17;;;-2.30;88.71
34065;BME280;20339;49.754;20.158;2024-01-16T03:59:07;95094.84;;;-2.30;88.35
34065;BME280;20339;49.754;20.158;2024-01-16T04:01:38;95095.73;;;-2.28;88.46
34065;BME280;20339;49.754;20.158;2024-01-16T04:04:16;95101.25;;;-2.31;88.26
34065;BME280;20339;49.754;20.158;2024-01-16T04:06:49;95106.86;;;-2.31;88.22
34065;BME280;20339;49.754;20.158;2024-01-16T04:09:22;95108.65;;;-2.29;88.15
34065;BME280;20339;49.754;20.158;2024-01-16T04:11:53;95108.30;;;-2.26;88.23
34065;BME280;20339;49.754;20.158;2024-01-16T04:14:28;95109.60;;;-2.23;88.00
34065;BME280;20339;49.754;20.158;2024-01-16T04:17:04;95111.35;;;-2.21;87.97
34065;BME280;20339;49.754;20.158;2024-01-16T04:19:34;95109.08;;;-2.20;87.97
34065;BME280;20339;49.754;20.158;2024-01-16T04:22:05;95114.01;;;-2.17;87.88
34065;BME280;20339;49.754;20.158;2024-01-16T04:24:40;95107.52;;;-2.13;87.84
34065;BME280;20339;49.754;20.158;2024-01-16T04:27:13;95112.75;;;-2.11;87.57
34065;BME280;20339;49.754;20.158;2024-01-16T04:29:45;95111.16;;;-2.12;87.23
34065;BME280;20339;49.754;20.158;2024-01-16T04:32:23;95106.65;;;-2.12;87.17
34065;BME280;20339;49.754;20.158;2024-01-16T04:34:55;95105.82;;;-2.10;87.32
34065;BME280;20339;49.754;20.158;2024-01-16T04:37:26;95111.53;;;-2.10;87.14
34065;BME280;20339;49.754;20.158;2024-01-16T04:39:57;95111.63;;;-2.10;87.12
34065;BME280;20339;49.754;20.158;2024-01-16T04:42:29;95111.89;;;-2.12;86.82
34065;BME280;20339;49.754;20.158;2024-01-16T04:45:01;95114.25;;;-2.14;86.94
34065;BME280;20339;49.754;20.158;2024-01-16T04:47:32;95118.81;;;-2.15;86.98
34065;BME280;20339;49.754;20.158;2024-01-16T04:50:05;95119.59;;;-2.15;87.38
34065;BME280;20339;49.754;20.158;2024-01-16T04:52:37;95121.65;;;-2.19;87.52
34065;BME280;20339;49.754;20.158;2024-01-16T04:55:08;95125.73;;;-2.21;87.83
34065;BME280;20339;49.754;20.158;2024-01-16T04:57:41;95120.99;;;-2.22;87.71
34065;BME280;20339;49.754;20.158;2024-01-16T05:00:16;95127.48;;;-2.22;87.69
34065;BME280;20339;49.754;20.158;2024-01-16T05:02:48;95138.06;;;-2.25;87.97
34065;BME280;20339;49.754;20.158;2024-01-16T05:05:20;95139.52;;;-2.31;88.77
34065;BME280;20339;49.754;20.158;2024-01-16T05:07:51;95142.38;;;-2.37;89.57
34065;BME280;20339;49.754;20.158;2024-01-16T05:10:25;95150.20;;;-2.40;89.35
34065;BME280;20339;49.754;20.158;2024-01-16T05:12:59;95147.27;;;-2.41;89.64
34065;BME280;20339;49.754;20.158;2024-01-16T05:15:30;95152.04;;;-2.42;89.73
34065;BME280;20339;49.754;20.158;2024-01-16T05:18:03;95156.59;;;-2.40;90.00
34065;BME280;20339;49.754;20.158;2024-01-16T05:20:34;95153.88;;;-2.38;90.11
34065;BME280;20339;49.754;20.158;2024-01-16T05:23:05;95153.38;;;-2.34;90.53
34065;BME280;20339;49.754;20.158;2024-01-16T05:25:39;95160.21;;;-2.32;90.68
34065;BME280;20339;49.754;20.158;2024-01-16T05:28:10;95167.59;;;-2.31;90.40
34065;BME280;20339;49.754;20.158;2024-01-16T05:30:42;95174.63;;;-2.29;90.45
34065;BME280;20339;49.754;20.158;2024-01-16T05:33:13;95177.50;;;-2.28;90.48
34065;BME280;20339;49.754;20.158;2024-01-16T05:35:44;95178.23;;;-2.23;90.75
34065;BME280;20339;49.754;20.158;2024-01-16T05:38:20;95189.63;;;-2.18;90.40
34065;BME280;20339;49.754;20.158;2024-01-16T05:40:51;95201.89;;;-2.18;90.33
34065;BME280;20339;49.754;20.158;2024-01-16T05:43:23;95200.83;;;-2.16;90.16
34065;BME280;20339;49.754;20.158;2024-01-16T05:45:54;95202.66;;;-2.12;90.01
34065;BME280;20339;49.754;20.158;2024-01-16T05:48:25;95205.75;;;-2.04;89.76
34065;BME280;20339;49.754;20.158;2024-01-16T05:51:01;95213.64;;;-1.99;89.23
34065;BME280;20339;49.754;20.158;2024-01-16T05:53:32;95217.48;;;-1.96;88.93
34065;BME280;20339;49.754;20.158;2024-01-16T05:56:03;95221.09;;;-1.95;88.55
34065;BME280;20339;49.754;20.158;2024-01-16T05:58:34;95226.63;;;-1.96;88.31
34065;BME280;20339;49.754;20.158;2024-01-16T06:01:11;95219.77;;;-1.98;87.62
34065;BME280;20339;49.754;20.158;2024-01-16T06:03:44;95224.27;;;-1.99;87.26
34065;BME280;20339;49.754;20.158;2024-01-16T06:06:18;95227.47;;;-2.04;87.07
34065;BME280;20339;49.754;20.158;2024-01-16T06:08:52;95235.70;;;-2.05;86.88
34065;BME280;20339;49.754;20.158;2024-01-16T06:11:32;95237.52;;;-2.03;86.37
34065;BME280;20339;49.754;20.158;2024-01-16T06:14:15;95237.61;;;-2.04;86.12
34065;BME280;20339;49.754;20.158;2024-01-16T06:16:53;95247.83;;;-2.07;86.04
34065;BME280;20339;49.754;20.158;2024-01-16T06:19:27;95248.86;;;-2.05;85.91
34065;BME280;20339;49.754;20.158;2024-01-16T06:21:58;95259.84;;;-2.00;85.44
34065;BME280;20339;49.754;20.158;2024-01-16T06:24:29;95261.05;;;-1.98;85.48
34065;BME280;20339;49.754;20.158;2024-01-16T06:27:07;95259.39;;;-1.99;85.40
34065;BME280;20339;49.754;20.158;2024-01-16T06:29:38;95263.00;;;-1.98;85.34
34065;BME280;20339;49.754;20.158;2024-01-16T06:32:12;95265.64;;;-1.98;85.65
34065;BME280;20339;49.754;20.158;2024-01-16T06:34:51;95269.66;;;-1.99;85.67
34065;BME280;20339;49.754;20.158;2024-01-16T06:37:22;95266.77;;;-2.02;85.68
34065;BME280;20339;49.754;20.158;2024-01-16T06:39:55;95271.16;;;-2.03;85.88
34065;BME280;20339;49.754;20.158;2024-01-16T06:42:28;95275.50;;;-2.05;85.87
34065;BME280;20339;49.754;20.158;2024-01-16T06:45:02;95274.86;;;-2.08;86.11
34065;BME280;20339;49.754;20.158;2024-01-16T06:47:33;95281.16;;;-2.12;86.43
34065;BME280;20339;49.754;20.158;2024-01-16T06:50:05;95292.61;;;-2.14;86.35
34065;BME280;20339;49.754;20.158;2024-01-16T06:52:38;95295.75;;;-2.15;86.92
34065;BME280;20339;49.754;20.158;2024-01-16T06:55:09;95300.73;;;-2.15;86.84
34065;BME280;20339;49.754;20.158;2024-01-16T06:57:40;95304.96;;;-2.14;87.36
34065;BME280;20339;49.754;20.158;2024-01-16T07:00:13;95314.40;;;-2.15;87.44
34065;BME280;20339;49.754;20.158;2024-01-16T07:02:44;95311.89;;;-2.15;87.67
34065;BME280;20339;49.754;20.158;2024-01-16T07:05:15;95311.92;;;-2.17;88.10
34065;BME280;20339;49.754;20.158;2024-01-16T07:07:46;95319.11;;;-2.18;88.46
34065;BME280;20339;49.754;20.158;2024-01-16T07:10:18;95326.35;;;-2.22;88.89
34065;BME280;20339;49.754;20.158;2024-01-16T07:12:54;95324.66;;;-2.29;89.09
34065;BME280;20339;49.754;20.158;2024-01-16T07:15:26;95326.34;;;-2.31;89.19
34065;BME280;20339;49.754;20.158;2024-01-16T07:17:57;95331.90;;;-2.33;89.40
34065;BME280;20339;49.754;20.158;2024-01-16T07:20:28;95335.20;;;-2.36;89.55
34065;BME280;20339;49.754;20.158;2024-01-16T07:22:59;95340.91;;;-2.36;89.86
34065;BME280;20339;49.754;20.158;2024-01-16T07:25:30;95347.30;;;-2.36;89.86
34065;BME280;20339;49.754;20.158;2024-01-16T07:28:01;95347.34;;;-2.39;90.23
34065;BME280;20339;49.754;20.158;2024-01-16T07:30:34;95351.33;;;-2.38;90.54
34065;BME280;20339;49.754;20.158;2024-01-16T07:33:06;95361.39;;;-2.40;90.94
34065;BME280;20339;49.754;20.158;2024-01-16T07:35:37;95363.23;;;-2.39;91.51
34065;BME280;20339;49.754;20.158;2024-01-16T07:38:10;95369.23;;;-2.35;91.79
34065;BME280;20339;49.754;20.158;2024-01-16T07:40:41;95375.20;;;-2.30;91.93
34065;BME280;20339;49.754;20.158;2024-01-16T07:43:12;95375.21;;;-2.24;92.59
34065;BME280;20339;49.754;20.158;2024-01-16T07:45:46;95374.58;;;-2.20;92.92
34065;BME280;20339;49.754;20.158;2024-01-16T07:48:17;95387.03;;;-2.18;92.54
34065;BME280;20339;49.754;20.158;2024-01-16T07:50:48;95382.79;;;-2.17;92.02
34065;BME280;20339;49.754;20.158;2024-01-16T07:53:21;95387.30;;;-2.17;91.97
34065;BME280;20339;49.754;20.158;2024-01-16T07:56:05;95398.07;;;-2.16;91.77
34065;BME280;20339;49.754;20.158;2024-01-16T07:58:39;95401.98;;;-2.16;91.89
34065;BME280;20339;49.754;20.158;2024-01-16T08:01:14;95406.73;;;-2.16;92.16
34065;BME280;20339;49.754;20.158;2024-01-16T08:03:50;95397.66;;;-2.16;92.07
34065;BME280;20339;49.754;20.158;2024-01-16T08:06:21;95394.94;;;-2.14;92.24
34065;BME280;20339;49.754;20.158;2024-01-16T08:08:54;95396.44;;;-2.10;92.23
34065;BME280;20339;49.754;20.158;2024-01-16T08:11:25;95393.43;;;-1.97;92.27
34065;BME280;20339;49.754;20.158;2024-01-16T08:13:56;95394.13;;;-1.75;92.33
34065;BME280;20339;49.754;20.158;2024-01-16T08:16:27;95389.31;;;-1.28;92.15
34065;BME280;20339;49.754;20.158;2024-01-16T08:18:58;95391.38;;;-1.24;90.83
34065;BME280;20339;49.754;20.158;2024-01-16T08:21:29;95393.29;;;-1.36;90.03
34065;BME280;20339;49.754;20.158;2024-01-16T08:24:00;95393.63;;;-1.49;89.15
34065;BME280;20339;49.754;20.158;2024-01-16T08:26:31;95398.70;;;-1.58;88.63
34065;BME280;20339;49.754;20.158;2024-01-16T08:29:02;95403.86;;;-1.64;88.10
34065;BME280;20339;49.754;20.158;2024-01-16T08:31:34;95408.42;;;-1.61;88.00
34065;BME280;20339;49.754;20.158;2024-01-16T08:34:05;95416.19;;;-1.53;87.21
34065;BME280;20339;49.754;20.158;2024-01-16T08:36:36;95421.27;;;-1.47;85.93
34065;BME280;20339;49.754;20.158;2024-01-16T08:39:12;95428.81;;;-1.43;85.67
34065;BME280;20339;49.754;20.158;2024-01-16T08:41:49;95428.04;;;-1.46;84.88
34065;BME280;20339;49.754;20.158;2024-01-16T08:44:23;95436.11;;;-1.54;84.42
34065;BME280;20339;49.754;20.158;2024-01-16T08:46:57;95436.32;;;-1.59;84.25
34065;BME280;20339;49.754;20.158;2024-01-16T08:49:34;95443.20;;;-1.64;83.22
34065;BME280;20339;49.754;20.158;2024-01-16T08:52:08;95455.46;;;-1.64;83.55
34065;BME280;20339;49.754;20.158;2024-01-16T08:54:40;95458.48;;;-1.63;83.21
34065;BME280;20339;49.754;20.158;2024-01-16T08:57:12;95455.08;;;-1.62;82.84
34065;BME280;20339;49.754;20.158;2024-01-16T08:59:43;95456.04;;;-1.60;81.48
34065;BME280;20339;49.754;20.158;2024-01-16T09:02:16;95465.71;;;-1.50;81.30
34065;BME280;20339;49.754;20.158;2024-01-16T09:04:51;95472.45;;;-1.39;80.51
34065;BME280;20339;49.754;20.158;2024-01-16T09:07:22;95468.76;;;-1.31;79.54
34065;BME280;20339;49.754;20.158;2024-01-16T09:09:58;95478.11;;;-1.21;80.11
34065;BME280;20339;49.754;20.158;2024-01-16T09:12:35;95477.00;;;-1.11;79.20
34065;BME280;20339;49.754;20.158;2024-01-16T09:15:16;95480.98;;;-1.10;78.88
34065;BME280;20339;49.754;20.158;2024-01-16T09:17:49;95483.05;;;-0.99;78.33
34065;BME280;20339;49.754;20.158;2024-01-16T09:20:19;95489.67;;;-0.98;77.78
34065;BME280;20339;49.754;20.158;2024-01-16T09:22:50;95487.77;;;-1.05;76.56
34065;BME280;20339;49.754;20.158;2024-01-16T09:25:21;95485.77;;;-1.09;75.36
34065;BME280;20339;49.754;20.158;2024-01-16T09:27:54;95482.67;;;-1.08;74.47
34065;BME280;20339;49.754;20.158;2024-01-16T09:30:25;95484.13;;;-1.11;74.61
34065;BME280;20339;49.754;20.158;2024-01-16T09:32:57;95488.84;;;-1.09;74.66
34065;BME280;20339;49.754;20.158;2024-01-16T09:35:35;95484.93;;;-0.98;74.43
34065;BME280;20339;49.754;20.158;2024-01-16T09:38:09;95479.60;;;-0.91;72.88
34065;BME280;20339;49.754;20.158;2024-01-16T09:40:40;95495.71;;;-0.92;73.52
34065;BME280;20339;49.754;20.158;2024-01-16T09:43:12;95492.06;;;-0.95;72.81
34065;BME280;20339;49.754;20.158;2024-01-16T09:45:44;95497.55;;;-0.96;73.43
34065;BME280;20339;49.754;20.158;2024-01-16T09:48:22;95502.50;;;-0.93;73.27
34065;BME280;20339;49.754;20.158;2024-01-16T09:50:59;95492.31;;;-0.84;72.83
34065;BME280;20339;49.754;20.158;2024-01-16T09:53:32;95498.94;;;-0.88;72.74
34065;BME280;20339;49.754;20.158;2024-01-16T09:56:06;95503.21;;;-0.76;73.66
34065;BME280;20339;49.754;20.158;2024-01-16T09:58:42;95504.16;;;-0.68;73.47
34065;BME280;20339;49.754;20.158;2024-01-16T10:01:18;95503.90;;;-0.78;72.31
34065;BME280;20339;49.754;20.158;2024-01-16T10:03:55;95492.88;;;-0.93;71.16
34065;BME280;20339;49.754;20.158;2024-01-16T10:06:31;95512.64;;;-1.02;71.29
34065;BME280;20339;49.754;20.158;2024-01-16T10:09:05;95510.67;;;-1.07;71.49
34065;BME280;20339;49.754;20.158;2024-01-16T10:11:39;95509.71;;;-1.08;71.65
34065;BME280;20339;49.754;20.158;2024-01-16T10:14:13;95510.48;;;-1.06;71.55
34065;BME280;20339;49.754;20.158;2024-01-16T10:17:01;95516.53;;;-1.11;71.74
34065;BME280;20339;49.754;20.158;2024-01-16T10:19:37;95521.55;;;-1.14;71.92
34065;BME280;20339;49.754;20.158;2024-01-16T10:22:22;95522.88;;;-1.15;72.10
34065;BME280;20339;49.754;20.158;2024-01-16T10:25:05;95515.48;;;-1.11;72.33
34065;BME280;20339;49.754;20.158;2024-01-16T10:27:43;95530.00;;;-0.97;72.74
34065;BME280;20339;49.754;20.158;2024-01-16T10:30:20;95524.83;;;-0.78;73.48
34065;BME280;20339;49.754;20.158;2024-01-16T10:32:54;95529.95;;;-0.69;73.36
34065;BME280;20339;49.754;20.158;2024-01-16T10:35:27;95526.13;;;-0.64;73.28
34065;BME280;20339;49.754;20.158;2024-01-16T10:38:00;95527.54;;;-0.57;73.11
34065;BME280;20339;49.754;20.158;2024-01-16T10:40:33;95528.10;;;-0.55;72.74
34065;BME280;20339;49.754;20.158;2024-01-16T10:43:07;95529.41;;;-0.48;72.64
34065;BME280;20339;49.754;20.158;2024-01-16T10:45:40;95533.30;;;-0.43;72.07
34065;BME280;20339;49.754;20.158;2024-01-16T10:48:13;95542.34;;;-0.44;72.08
34065;BME280;20339;49.754;20.158;2024-01-16T10:50:46;95544.46;;;-0.47;72.45
34065;BME280;20339;49.754;20.158;2024-01-16T10:53:23;95546.91;;;-0.47;72.80
34065;BME280;20339;49.754;20.158;2024-01-16T10:55:59;95547.55;;;-0.44;73.26
34065;BME280;20339;49.754;20.158;2024-01-16T10:58:31;95540.67;;;-0.39;73.41
34065;BME280;20339;49.754;20.158;2024-01-16T11:01:04;95541.28;;;-0.39;73.47
34065;BME280;20339;49.754;20.158;2024-01-16T11:03:40;95548.23;;;-0.40;73.02
34065;BME280;20339;49.754;20.158;2024-01-16T11:06:11;95536.09;;;-0.51;71.81
34065;BME280;20339;49.754;20.158;2024-01-16T11:08:46;95542.27;;;-0.64;70.73
34065;BME280;20339;49.754;20.158;2024-01-16T11:11:18;95540.61;;;-0.71;70.60
34065;BME280;20339;49.754;20.158;2024-01-16T11:13:50;95544.46;;;-0.71;71.32
34065;BME280;20339;49.754;20.158;2024-01-16T11:16:22;95536.63;;;-0.73;70.98
34065;BME280;20339;49.754;20.158;2024-01-16T11:18:53;95533.44;;;-0.65;70.85
34065;BME280;20339;49.754;20.158;2024-01-16T11:21:25;95531.84;;;-0.56;70.69
34065;BME280;20339;49.754;20.158;2024-01-16T11:23:56;95529.98;;;-0.64;69.57
34065;BME280;20339;49.754;20.158;2024-01-16T11:26:29;95535.58;;;-0.69;68.93
34065;BME280;20339;49.754;20.158;2024-01-16T11:29:33;95539.42;;;-0.59;69.44
34065;BME280;20339;49.754;20.158;2024-01-16T11:31:53;95538.94;;;-0.64;68.52
34065;BME280;20339;49.754;20.158;2024-01-16T11:34:56;95534.64;;;-0.69;67.76
34065;BME280;20339;49.754;20.158;2024-01-16T11:37:28;95537.79;;;-0.64;68.05
34065;BME280;20339;49.754;20.158;2024-01-16T11:40:26;95542.52;;;-0.48;67.27
34065;BME280;20339;49.754;20.158;2024-01-16T11:42:58;95543.27;;;-0.39;65.77
34065;BME280;20339;49.754;20.158;2024-01-16T11:45:49;95551.44;;;-0.51;65.69
34065;BME280;20339;49.754;20.158;2024-01-16T11:48:23;95554.41;;;-0.59;65.20
34065;BME280;20339;49.754;20.158;2024-01-16T11:50:55;95564.47;;;-0.65;65.17
34065;BME280;20339;49.754;20.158;2024-01-16T11:53:39;95554.16;;;-0.69;64.83
34065;BME280;20339;49.754;20.158;2024-01-16T11:59:42;95556.40;;;-0.50;64.49
34065;BME280;20339;49.754;20.158;2024-01-16T12:02:23;95567.48;;;-0.47;64.36
34065;BME280;20339;49.754;20.158;2024-01-16T12:04:55;95567.87;;;-0.50;64.08
34065;BME280;20339;49.754;20.158;2024-01-16T12:07:28;95571.18;;;-0.54;63.56
34065;BME280;20339;49.754;20.158;2024-01-16T12:10:01;95581.27;;;-0.54;64.21
34065;BME280;20339;49.754;20.158;2024-01-16T12:12:34;95580.31;;;-0.40;63.73
34065;BME280;20339;49.754;20.158;2024-01-16T12:15:07;95579.30;;;-0.27;63.57
34065;BME280;20339;49.754;20.158;2024-01-16T12:17:56;95588.92;;;-0.24;63.03
34065;BME280;20339;49.754;20.158;2024-01-16T12:20:29;95594.56;;;0.06;63.75
34065;BME280;20339;49.754;20.158;2024-01-16T12:23:02;95596.28;;;0.33;62.39
34065;BME280;20339;49.754;20.158;2024-01-16T12:25:34;95593.05;;;0.32;61.17
34065;BME280;20339;49.754;20.158;2024-01-16T12:28:07;95590.42;;;0.57;62.00
34065;BME280;20339;49.754;20.158;2024-01-16T12:30:40;95583.58;;;0.75;61.76
34065;BME280;20339;49.754;20.158;2024-01-16T12:33:12;95581.92;;;0.89;62.51
34065;BME280;20339;49.754;20.158;2024-01-16T12:35:44;95588.50;;;0.97;62.76
34065;BME280;20339;49.754;20.158;2024-01-16T12:38:16;95594.27;;;0.87;62.46
34065;BME280;20339;49.754;20.158;2024-01-16T12:40:49;95603.23;;;0.59;61.53
34065;BME280;20339;49.754;20.158;2024-01-16T12:43:22;95607.52;;;0.41;61.77
34065;BME280;20339;49.754;20.158;2024-01-16T12:45:57;95603.17;;;0.37;61.59
34065;BME280;20339;49.754;20.158;2024-01-16T12:48:31;95604.25;;;0.32;62.04
34065;BME280;20339;49.754;20.158;2024-01-16T12:51:03;95606.40;;;0.26;62.24
34065;BME280;20339;49.754;20.158;2024-01-16T12:53:36;95605.23;;;0.17;62.25
34065;BME280;20339;49.754;20.158;2024-01-16T12:56:09;95598.02;;;0.14;63.13
34065;BME280;20339;49.754;20.158;2024-01-16T12:58:41;95595.62;;;0.16;62.62
34065;BME280;20339;49.754;20.158;2024-01-16T13:01:26;95600.52;;;0.07;62.51
34065;BME280;20339;49.754;20.158;2024-01-16T13:03:57;95600.03;;;-0.01;62.97
34065;BME280;20339;49.754;20.158;2024-01-16T13:06:33;95607.59;;;-0.15;63.43
34065;BME280;20339;49.754;20.158;2024-01-16T13:09:08;95608.37;;;-0.23;63.83
34065;BME280;20339;49.754;20.158;2024-01-16T13:11:51;95604.95;;;-0.37;64.13
34065;BME280;20339;49.754;20.158;2024-01-16T13:14:24;95610.46;;;-0.46;64.69
34065;BME280;20339;49.754;20.158;2024-01-16T13:16:59;95606.95;;;-0.44;64.93
34065;BME280;20339;49.754;20.158;2024-01-16T13:19:31;95609.77;;;-0.49;65.01
34065;BME280;20339;49.754;20.158;2024-01-16T13:22:03;95611.38;;;-0.56;65.29
34065;BME280;20339;49.754;20.158;2024-01-16T13:24:34;95610.69;;;-0.58;65.64
34065;BME280;20339;49.754;20.158;2024-01-16T13:27:06;95614.16;;;-0.60;66.21
34065;BME280;20339;49.754;20.158;2024-01-16T13:29:39;95618.17;;;-0.60;66.23